»·PEaware :: N475RS KCHD-KHND

N475RS :: KCHD-KHND

FLIGHT INFORMATION

Flight Status: Arrived
Operator: Privately registered:
United States
More flights under this callsign
Pilot: Aker J. (16898)
Aircraft: BOMBARDIER BD-100 CHALLENGER 300
(CL30)
More flights by this aircraft type
Origin: KCHD Chandler Mun
United States
Destination: KHND Henderson
United States
More flights between these airports :: More routes between these airports
Route: +MAYSA5 SISIE IGM KNGMN2
File this flight plan on PilotEdge
Remarks:
Altitude:
(Current/Filed)
32,000ft
Speed:
(Current/Filed)
450kts
Departed: 13-Feb-18 09:52 PM
Arrived: 13-Feb-18 10:39 PM
Distance/Time
Traveled:
231nm/0:46
Distance/Time
To Go:
Arrived

Flight Plot

Page will automatically refresh every two minutes.

Flight plan parsing failed; only flown route is shown


Map Options




Map Legend


Flown Route
Filed Route
Departure Airport
Arrival Airport
Navaid (VOR, NDB)
Fix

Horizontal Profiles

Position Reports

Time Latitude Longitude Heading Altitude Ground
Speed
13-Feb-18 21:32 33.272818 -111.812765 89 1238ft 0kts
13-Feb-18 21:33 33.272818 -111.812765 89 1238ft 0kts
13-Feb-18 21:34 33.272818 -111.812765 89 1238ft 0kts
13-Feb-18 21:35 33.272818 -111.812765 89 1238ft 0kts
13-Feb-18 21:36 33.272818 -111.812765 89 1238ft 0kts
13-Feb-18 21:37 33.272818 -111.812765 89 1238ft 0kts
13-Feb-18 21:38 33.272818 -111.812765 89 1238ft 0kts
13-Feb-18 21:39 33.272818 -111.812765 89 1238ft 0kts
13-Feb-18 21:40 33.272818 -111.812765 89 1238ft 0kts
13-Feb-18 21:41 33.272818 -111.812765 89 1238ft 0kts
13-Feb-18 21:42 33.272818 -111.812765 89 1238ft 0kts
13-Feb-18 21:43 33.272818 -111.812765 89 1238ft 0kts
13-Feb-18 21:44 33.272818 -111.812765 89 1238ft 0kts
13-Feb-18 21:45 33.272818 -111.812765 89 1238ft 0kts
13-Feb-18 21:46 33.272818 -111.812765 89 1238ft 0kts
13-Feb-18 21:47 33.272818 -111.812765 89 1238ft 0kts
13-Feb-18 21:48 33.272818 -111.812765 89 1238ft 0kts
13-Feb-18 21:49 33.272818 -111.812765 89 1238ft 0kts
13-Feb-18 21:50 33.272818 -111.812765 89 1238ft 0kts
13-Feb-18 21:51 33.272818 -111.812765 89 1238ft 0kts
13-Feb-18 21:52 33.272818 -111.812765 89 1238ft 0kts
13-Feb-18 21:53 33.272818 -111.812752 89 1238ft 1kts
13-Feb-18 21:54 33.272392 -111.809965 48 1242ft 9kts
13-Feb-18 21:55 33.272462 -111.808976 224 1242ft 0kts
13-Feb-18 21:56 33.272140 -111.809202 197 1241ft 0kts
13-Feb-18 21:57 33.272048 -111.809214 180 1241ft 0kts
13-Feb-18 21:58 33.270869 -111.810468 231 1240ft 21kts
13-Feb-18 21:59 33.258337 -111.844107 284 1927ft 187kts
13-Feb-18 22:00 33.266622 -111.870256 288 2574ft 161kts
13-Feb-18 22:01 33.288008 -111.937867 289 4357ft 239kts
13-Feb-18 22:02 33.324389 -111.989909 337 5679ft 230kts
13-Feb-18 22:03 33.382014 -112.016130 334 9221ft 238kts
13-Feb-18 22:04 33.449105 -112.047758 333 13326ft 284kts
13-Feb-18 22:05 33.494199 -112.069773 332 15766ft 303kts
13-Feb-18 22:06 33.570634 -112.106976 328 19850ft 304kts
13-Feb-18 22:07 33.656527 -112.149796 329 21020ft 403kts
13-Feb-18 22:08 33.769678 -112.205930 330 21082ft 450kts
13-Feb-18 22:09 33.886676 -112.264114 329 24223ft 461kts
13-Feb-18 22:10 33.973808 -112.307562 326 27314ft 445kts
13-Feb-18 22:11 34.067678 -112.377624 308 29707ft 428kts
13-Feb-18 22:12 34.158990 -112.467287 306 31918ft 434kts
13-Feb-18 22:13 34.256135 -112.564986 307 32080ft 474kts
13-Feb-18 22:14 34.353544 -112.663211 305 32088ft 448kts
13-Feb-18 22:15 34.447391 -112.758480 305 32096ft 443kts
13-Feb-18 22:16 34.541914 -112.854791 306 32289ft 455kts
13-Feb-18 22:17 34.637016 -112.956847 305 32289ft 464kts
13-Feb-18 22:18 34.733828 -113.062560 306 32284ft 475kts
13-Feb-18 22:19 34.831152 -113.169170 305 32279ft 468kts
13-Feb-18 22:20 34.926303 -113.273882 306 32272ft 461kts
13-Feb-18 22:21 35.005125 -113.387913 290 32265ft 430kts
13-Feb-18 22:22 35.064939 -113.512067 290 32266ft 426kts
13-Feb-18 22:23 35.122490 -113.635208 289 32252ft 424kts
13-Feb-18 22:24 35.179445 -113.758288 289 32261ft 422kts
13-Feb-18 22:25 35.237048 -113.883463 289 32262ft 428kts
13-Feb-18 22:26 35.298532 -114.011722 291 32263ft 448kts
13-Feb-18 22:27 35.362384 -114.142040 291 32264ft 454kts
13-Feb-18 22:28 35.426504 -114.273176 291 32252ft 437kts
13-Feb-18 22:29 35.487139 -114.397704 290 32232ft 418kts
13-Feb-18 22:30 35.545166 -114.517345 290 32215ft 404kts
13-Feb-18 22:31 35.604070 -114.639556 291 29367ft 434kts
13-Feb-18 22:32 35.665941 -114.766029 291 26417ft 432kts
13-Feb-18 22:33 35.716713 -114.893622 288 23452ft 414kts
13-Feb-18 22:34 35.754466 -115.020706 268 20495ft 386kts
13-Feb-18 22:35 35.776773 -115.135788 291 17742ft 390kts
13-Feb-18 22:36 35.822712 -115.252524 291 14776ft 375kts
13-Feb-18 22:37 35.864383 -115.365275 291 11799ft 354kts
13-Feb-18 22:38 35.929372 -115.435860 5 8705ft 327kts
13-Feb-18 22:39 35.989334 -115.375467 73 7289ft 271kts
13-Feb-18 22:40 36.000423 -115.289814 81 6073ft 212kts
13-Feb-18 22:41 36.024763 -115.236084 48 5199ft 169kts
13-Feb-18 22:42 36.044068 -115.189256 74 4360ft 140kts
13-Feb-18 22:43 36.031458 -115.152031 137 3662ft 120kts
13-Feb-18 22:44 36.002232 -115.134672 180 2813ft 117kts
13-Feb-18 22:45 35.970288 -115.135387 181 2449ft 82kts
13-Feb-18 22:46 35.966712 -115.134826 224 2467ft 25kts
13-Feb-18 22:47 35.967267 -115.136283 321 2460ft 4kts

Navigation Log

Ident Type
Flight plan parsing failed, navigation log unavailable